sensor_id;sensor_type;location;lat;lon;timestamp;pressure;altitude;pressure_sealevel;temperature;humidity
23341;BME280;12239;53.404;23.492;2023-02-04T00:01:50;99453.59;;;-2.96;100.00
23341;BME280;12239;53.404;23.492;2023-02-04T00:04:20;99456.27;;;-2.98;100.00
23341;BME280;12239;53.404;23.492;2023-02-04T00:06:49;99456.10;;;-3.01;100.00
23341;BME280;12239;53.404;23.492;2023-02-04T00:09:19;99463.23;;;-3.03;100.00
23341;BME280;12239;53.404;23.492;2023-02-04T00:11:48;99465.67;;;-3.04;100.00
23341;BME280;12239;53.404;23.492;2023-02-04T00:14:17;99463.20;;;-3.04;100.00
23341;BME280;12239;53.404;23.492;2023-02-04T00:16:47;99466.35;;;-3.04;100.00
23341;BME280;12239;53.404;23.492;2023-02-04T00:19:16;99467.94;;;-3.02;100.00
23341;BME280;12239;53.404;23.492;2023-02-04T00:21:46;99475.23;;;-3.02;100.00
23341;BME280;12239;53.404;23.492;2023-02-04T00:24:15;99478.91;;;-3.02;100.00
23341;BME280;12239;53.404;23.492;2023-02-04T00:26:44;99483.68;;;-3.01;100.00
23341;BME280;12239;53.404;23.492;2023-02-04T00:29:14;99489.51;;;-3.01;100.00
23341;BME280;12239;53.404;23.492;2023-02-04T00:31:43;99492.71;;;-3.00;100.00
23341;BME280;12239;53.404;23.492;2023-02-04T00:34:12;99491.14;;;-3.00;100.00
23341;BME280;12239;53.404;23.492;2023-02-04T00:36:42;99493.17;;;-2.98;100.00
23341;BME280;12239;53.404;23.492;2023-02-04T00:39:11;99491.14;;;-2.97;100.00
23341;BME280;12239;53.404;23.492;2023-02-04T00:41:40;99494.33;;;-2.97;100.00
23341;BME280;12239;53.404;23.492;2023-02-04T00:44:10;99495.20;;;-2.95;100.00
23341;BME280;12239;53.404;23.492;2023-02-04T00:46:41;99504.19;;;-2.94;100.00
23341;BME280;12239;53.404;23.492;2023-02-04T00:49:10;99512.69;;;-2.93;100.00
23341;BME280;12239;53.404;23.492;2023-02-04T00:51:40;99517.71;;;-2.94;100.00
23341;BME280;12239;53.404;23.492;2023-02-04T00:54:13;99519.00;;;-2.94;100.00
23341;BME280;12239;53.404;23.492;2023-02-04T00:56:43;99521.05;;;-2.95;100.00
23341;BME280;12239;53.404;23.492;2023-02-04T00:59:12;99519.09;;;-2.99;100.00
23341;BME280;12239;53.404;23.492;2023-02-04T01:01:41;99526.45;;;-2.98;100.00
23341;BME280;12239;53.404;23.492;2023-02-04T01:04:11;99529.65;;;-2.98;100.00
23341;BME280;12239;53.404;23.492;2023-02-04T01:06:41;99528.73;;;-2.98;100.00
23341;BME280;12239;53.404;23.492;2023-02-04T01:09:11;99530.74;;;-2.96;100.00
23341;BME280;12239;53.404;23.492;2023-02-04T01:11:40;99530.88;;;-2.95;100.00
23341;BME280;12239;53.404;23.492;2023-02-04T01:14:09;99535.13;;;-2.93;100.00
23341;BME280;12239;53.404;23.492;2023-02-04T01:16:39;99541.24;;;-2.90;100.00
23341;BME280;12239;53.404;23.492;2023-02-04T01:19:08;99543.60;;;-2.88;100.00
23341;BME280;12239;53.404;23.492;2023-02-04T01:21:38;99551.49;;;-2.86;100.00
23341;BME280;12239;53.404;23.492;2023-02-04T01:24:07;99557.61;;;-2.85;100.00
23341;BME280;12239;53.404;23.492;2023-02-04T01:26:40;99558.91;;;-2.83;100.00
23341;BME280;12239;53.404;23.492;2023-02-04T01:29:09;99567.13;;;-2.81;100.00
23341;BME280;12239;53.404;23.492;2023-02-04T01:31:39;99570.94;;;-2.82;100.00
23341;BME280;12239;53.404;23.492;2023-02-04T01:34:08;99571.63;;;-2.84;100.00
23341;BME280;12239;53.404;23.492;2023-02-04T01:36:38;99582.60;;;-2.84;100.00
23341;BME280;12239;53.404;23.492;2023-02-04T01:39:07;99588.36;;;-2.86;100.00
23341;BME280;12239;53.404;23.492;2023-02-04T01:41:36;99588.51;;;-2.89;100.00
23341;BME280;12239;53.404;23.492;2023-02-04T01:44:06;99593.69;;;-2.91;100.00
23341;BME280;12239;53.404;23.492;2023-02-04T01:46:35;99599.77;;;-2.91;100.00
23341;BME280;12239;53.404;23.492;2023-02-04T01:49:05;99604.02;;;-2.91;100.00
23341;BME280;12239;53.404;23.492;2023-02-04T01:51:34;99606.60;;;-2.90;100.00
23341;BME280;12239;53.404;23.492;2023-02-04T01:54:04;99608.43;;;-2.91;100.00
23341;BME280;12239;53.404;23.492;2023-02-04T01:56:34;99618.77;;;-2.89;100.00
23341;BME280;12239;53.404;23.492;2023-02-04T01:59:09;99629.26;;;-2.89;100.00
23341;BME280;12239;53.404;23.492;2023-02-04T02:01:40;99632.46;;;-2.89;100.00
23341;BME280;12239;53.404;23.492;2023-02-04T02:04:10;99635.05;;;-2.90;100.00
23341;BME280;12239;53.404;23.492;2023-02-04T02:06:44;99640.52;;;-2.89;100.00
23341;BME280;12239;53.404;23.492;2023-02-04T02:09:15;99645.48;;;-2.88;100.00
23341;BME280;12239;53.404;23.492;2023-02-04T02:11:47;99650.67;;;-2.88;100.00
23341;BME280;12239;53.404;23.492;2023-02-04T02:14:17;99656.80;;;-2.89;100.00
23341;BME280;12239;53.404;23.492;2023-02-04T02:16:49;99662.71;;;-2.89;100.00
23341;BME280;12239;53.404;23.492;2023-02-04T02:19:21;99662.96;;;-2.88;100.00
23341;BME280;12239;53.404;23.492;2023-02-04T02:21:54;99666.84;;;-2.88;100.00
23341;BME280;12239;53.404;23.492;2023-02-04T02:24:27;99672.48;;;-2.88;100.00
23341;BME280;12239;53.404;23.492;2023-02-04T02:26:57;99672.95;;;-2.89;100.00
23341;BME280;12239;53.404;23.492;2023-02-04T02:29:27;99678.11;;;-2.89;100.00
23341;BME280;12239;53.404;23.492;2023-02-04T02:31:57;99683.95;;;-2.92;100.00
23341;BME280;12239;53.404;23.492;2023-02-04T02:34:27;99683.88;;;-2.94;100.00
23341;BME280;12239;53.404;23.492;2023-02-04T02:36:57;99684.97;;;-2.94;100.00
23341;BME280;12239;53.404;23.492;2023-02-04T02:39:27;99687.31;;;-2.96;100.00
23341;BME280;12239;53.404;23.492;2023-02-04T02:41:57;99690.58;;;-2.98;100.00
23341;BME280;12239;53.404;23.492;2023-02-04T02:44:26;99690.89;;;-3.01;100.00
23341;BME280;12239;53.404;23.492;2023-02-04T02:46:57;99699.07;;;-3.01;100.00
23341;BME280;12239;53.404;23.492;2023-02-04T02:49:27;99705.14;;;-3.02;100.00
23341;BME280;12239;53.404;23.492;2023-02-04T02:51:57;99710.52;;;-3.04;100.00
23341;BME280;12239;53.404;23.492;2023-02-04T02:54:27;99714.45;;;-3.05;100.00
23341;BME280;12239;53.404;23.492;2023-02-04T02:56:57;99731.66;;;-3.06;100.00
23341;BME280;12239;53.404;23.492;2023-02-04T02:59:27;99735.59;;;-3.11;100.00
23341;BME280;12239;53.404;23.492;2023-02-04T03:01:56;99747.45;;;-3.13;100.00
23341;BME280;12239;53.404;23.492;2023-02-04T03:04:28;99742.60;;;-3.18;100.00
23341;BME280;12239;53.404;23.492;2023-02-04T03:06:58;99757.34;;;-3.18;100.00
23341;BME280;12239;53.404;23.492;2023-02-04T03:09:28;99763.48;;;-3.19;100.00
23341;BME280;12239;53.404;23.492;2023-02-04T03:11:57;99768.94;;;-3.21;100.00
23341;BME280;12239;53.404;23.492;2023-02-04T03:14:27;99770.80;;;-3.22;100.00
23341;BME280;12239;53.404;23.492;2023-02-04T03:16:56;99776.58;;;-3.22;100.00
23341;BME280;12239;53.404;23.492;2023-02-04T03:19:27;99786.66;;;-3.22;100.00
23341;BME280;12239;53.404;23.492;2023-02-04T03:21:56;99787.39;;;-3.23;100.00
23341;BME280;12239;53.404;23.492;2023-02-04T03:24:26;99791.77;;;-3.23;100.00
23341;BME280;12239;53.404;23.492;2023-02-04T03:26:55;99798.11;;;-3.23;100.00
23341;BME280;12239;53.404;23.492;2023-02-04T03:29:25;99800.10;;;-3.24;100.00
23341;BME280;12239;53.404;23.492;2023-02-04T03:31:54;99807.60;;;-3.27;100.00
23341;BME280;12239;53.404;23.492;2023-02-04T03:34:23;99812.06;;;-3.31;100.00
23341;BME280;12239;53.404;23.492;2023-02-04T03:36:53;99813.69;;;-3.35;100.00
23341;BME280;12239;53.404;23.492;2023-02-04T03:39:22;99815.81;;;-3.40;100.00
23341;BME280;12239;53.404;23.492;2023-02-04T03:41:52;99816.27;;;-3.42;100.00
23341;BME280;12239;53.404;23.492;2023-02-04T03:44:21;99823.14;;;-3.45;100.00
23341;BME280;12239;53.404;23.492;2023-02-04T03:46:53;99828.04;;;-3.49;100.00
23341;BME280;12239;53.404;23.492;2023-02-04T03:49:23;99830.15;;;-3.53;100.00
23341;BME280;12239;53.404;23.492;2023-02-04T03:51:53;99842.16;;;-3.54;100.00
23341;BME280;12239;53.404;23.492;2023-02-04T03:54:22;99849.38;;;-3.57;100.00
23341;BME280;12239;53.404;23.492;2023-02-04T03:56:52;99853.35;;;-3.60;100.00
23341;BME280;12239;53.404;23.492;2023-02-04T03:59:21;99862.23;;;-3.62;100.00
23341;BME280;12239;53.404;23.492;2023-02-04T04:01:50;99862.77;;;-3.65;100.00
23341;BME280;12239;53.404;23.492;2023-02-04T04:04:20;99863.69;;;-3.70;100.00
23341;BME280;12239;53.404;23.492;2023-02-04T04:06:49;99869.65;;;-3.74;100.00
23341;BME280;12239;53.404;23.492;2023-02-04T04:09:19;99870.61;;;-3.80;100.00
23341;BME280;12239;53.404;23.492;2023-02-04T04:11:48;99877.14;;;-3.84;100.00
23341;BME280;12239;53.404;23.492;2023-02-04T04:14:17;99886.23;;;-3.88;100.00
23341;BME280;12239;53.404;23.492;2023-02-04T04:16:47;99889.39;;;-3.94;100.00
23341;BME280;12239;53.404;23.492;2023-02-04T04:19:16;99900.45;;;-3.99;100.00
23341;BME280;12239;53.404;23.492;2023-02-04T04:21:45;99904.30;;;-4.05;100.00
23341;BME280;12239;53.404;23.492;2023-02-04T04:24:15;99907.95;;;-4.10;100.00
23341;BME280;12239;53.404;23.492;2023-02-04T04:26:44;99913.05;;;-4.17;100.00
23341;BME280;12239;53.404;23.492;2023-02-04T04:29:13;99923.63;;;-4.21;100.00
23341;BME280;12239;53.404;23.492;2023-02-04T04:31:43;99924.48;;;-4.27;100.00
23341;BME280;12239;53.404;23.492;2023-02-04T04:34:13;99930.64;;;-4.30;100.00
23341;BME280;12239;53.404;23.492;2023-02-04T04:36:42;99937.44;;;-4.35;100.00
23341;BME280;12239;53.404;23.492;2023-02-04T04:39:11;99936.83;;;-4.38;100.00
23341;BME280;12239;53.404;23.492;2023-02-04T04:41:40;99944.02;;;-4.41;100.00
23341;BME280;12239;53.404;23.492;2023-02-04T04:44:10;99948.58;;;-4.44;100.00
23341;BME280;12239;53.404;23.492;2023-02-04T04:46:39;99954.34;;;-4.49;100.00
23341;BME280;12239;53.404;23.492;2023-02-04T04:49:09;99959.17;;;-4.53;100.00
23341;BME280;12239;53.404;23.492;2023-02-04T04:51:38;99964.67;;;-4.58;100.00
23341;BME280;12239;53.404;23.492;2023-02-04T04:54:07;99973.98;;;-4.62;100.00
23341;BME280;12239;53.404;23.492;2023-02-04T04:56:37;99978.98;;;-4.67;100.00
23341;BME280;12239;53.404;23.492;2023-02-04T04:59:06;99985.30;;;-4.70;100.00
23341;BME280;12239;53.404;23.492;2023-02-04T05:01:35;99986.30;;;-4.74;100.00
23341;BME280;12239;53.404;23.492;2023-02-04T05:04:05;99992.31;;;-4.76;100.00
23341;BME280;12239;53.404;23.492;2023-02-04T05:06:34;100000.33;;;-4.80;100.00
23341;BME280;12239;53.404;23.492;2023-02-04T05:09:03;100006.46;;;-4.85;100.00
23341;BME280;12239;53.404;23.492;2023-02-04T05:11:33;100012.02;;;-4.91;100.00
23341;BME280;12239;53.404;23.492;2023-02-04T05:14:02;100024.42;;;-4.96;100.00
23341;BME280;12239;53.404;23.492;2023-02-04T05:16:32;100034.42;;;-5.03;100.00
23341;BME280;12239;53.404;23.492;2023-02-04T05:19:01;100040.95;;;-5.10;100.00
23341;BME280;12239;53.404;23.492;2023-02-04T05:21:30;100041.17;;;-5.18;100.00
23341;BME280;12239;53.404;23.492;2023-02-04T05:24:02;100042.55;;;-5.24;100.00
23341;BME280;12239;53.404;23.492;2023-02-04T05:26:33;100049.44;;;-5.29;100.00
23341;BME280;12239;53.404;23.492;2023-02-04T05:29:02;100050.42;;;-5.33;100.00
23341;BME280;12239;53.404;23.492;2023-02-04T05:31:32;100059.65;;;-5.36;100.00
23341;BME280;12239;53.404;23.492;2023-02-04T05:34:02;100060.41;;;-5.38;100.00
23341;BME280;12239;53.404;23.492;2023-02-04T05:36:31;100063.77;;;-5.40;100.00
23341;BME280;12239;53.404;23.492;2023-02-04T05:39:00;100068.04;;;-5.42;100.00
23341;BME280;12239;53.404;23.492;2023-02-04T05:41:30;100071.70;;;-5.44;100.00
23341;BME280;12239;53.404;23.492;2023-02-04T05:44:00;100077.20;;;-5.46;100.00
23341;BME280;12239;53.404;23.492;2023-02-04T05:46:29;100077.25;;;-5.48;100.00
23341;BME280;12239;53.404;23.492;2023-02-04T05:48:58;100081.29;;;-5.51;100.00
23341;BME280;12239;53.404;23.492;2023-02-04T05:51:29;100079.25;;;-5.55;100.00
23341;BME280;12239;53.404;23.492;2023-02-04T05:53:58;100079.65;;;-5.59;100.00
23341;BME280;12239;53.404;23.492;2023-02-04T05:56:28;100083.63;;;-5.61;100.00
23341;BME280;12239;53.404;23.492;2023-02-04T05:58:57;100084.04;;;-5.67;100.00
23341;BME280;12239;53.404;23.492;2023-02-04T06:01:26;100089.46;;;-5.72;100.00
23341;BME280;12239;53.404;23.492;2023-02-04T06:03:56;100089.87;;;-5.75;100.00
23341;BME280;12239;53.404;23.492;2023-02-04T06:06:25;100092.92;;;-5.79;100.00
23341;BME280;12239;53.404;23.492;2023-02-04T06:08:54;100103.10;;;-5.78;100.00
23341;BME280;12239;53.404;23.492;2023-02-04T06:11:23;100112.84;;;-5.78;100.00
23341;BME280;12239;53.404;23.492;2023-02-04T06:13:53;100124.89;;;-5.76;100.00
23341;BME280;12239;53.404;23.492;2023-02-04T06:16:22;100123.70;;;-5.73;100.00
23341;BME280;12239;53.404;23.492;2023-02-04T06:18:51;100130.97;;;-5.69;100.00
23341;BME280;12239;53.404;23.492;2023-02-04T06:21:21;100135.58;;;-5.65;100.00
23341;BME280;12239;53.404;23.492;2023-02-04T06:23:50;100137.62;;;-5.61;100.00
23341;BME280;12239;53.404;23.492;2023-02-04T06:26:20;100143.33;;;-5.58;100.00
23341;BME280;12239;53.404;23.492;2023-02-04T06:28:49;100148.83;;;-5.52;100.00
23341;BME280;12239;53.404;23.492;2023-02-04T06:31:18;100149.11;;;-5.48;100.00
23341;BME280;12239;53.404;23.492;2023-02-04T06:33:48;100156.11;;;-5.43;100.00
23341;BME280;12239;53.404;23.492;2023-02-04T06:36:17;100156.83;;;-5.40;100.00
23341;BME280;12239;53.404;23.492;2023-02-04T06:38:47;100164.23;;;-5.36;100.00
23341;BME280;12239;53.404;23.492;2023-02-04T06:41:16;100168.02;;;-5.33;100.00
23341;BME280;12239;53.404;23.492;2023-02-04T06:43:45;100172.29;;;-5.30;100.00
23341;BME280;12239;53.404;23.492;2023-02-04T06:46:15;100173.01;;;-5.29;100.00
23341;BME280;12239;53.404;23.492;2023-02-04T06:48:44;100178.67;;;-5.26;100.00
23341;BME280;12239;53.404;23.492;2023-02-04T06:51:13;100175.91;;;-5.23;100.00
23341;BME280;12239;53.404;23.492;2023-02-04T06:53:43;100177.20;;;-5.19;100.00
23341;BME280;12239;53.404;23.492;2023-02-04T06:56:12;100178.82;;;-5.15;100.00
23341;BME280;12239;53.404;23.492;2023-02-04T06:58:42;100183.06;;;-5.10;100.00
23341;BME280;12239;53.404;23.492;2023-02-04T07:01:11;100186.81;;;-5.06;100.00
23341;BME280;12239;53.404;23.492;2023-02-04T07:03:41;100194.42;;;-4.99;100.00
23341;BME280;12239;53.404;23.492;2023-02-04T07:06:10;100195.82;;;-4.94;100.00
23341;BME280;12239;53.404;23.492;2023-02-04T07:08:39;100199.83;;;-4.90;100.00
23341;BME280;12239;53.404;23.492;2023-02-04T07:11:08;100208.50;;;-4.86;100.00
23341;BME280;12239;53.404;23.492;2023-02-04T07:13:38;100208.83;;;-4.82;100.00
23341;BME280;12239;53.404;23.492;2023-02-04T07:16:07;100215.31;;;-4.81;100.00
23341;BME280;12239;53.404;23.492;2023-02-04T07:18:37;100224.67;;;-4.78;100.00
23341;BME280;12239;53.404;23.492;2023-02-04T07:21:06;100221.23;;;-4.76;100.00
23341;BME280;12239;53.404;23.492;2023-02-04T07:23:36;100226.19;;;-4.73;100.00
23341;BME280;12239;53.404;23.492;2023-02-04T07:26:06;100228.81;;;-4.72;100.00
23341;BME280;12239;53.404;23.492;2023-02-04T07:28:35;100230.13;;;-4.68;100.00
23341;BME280;12239;53.404;23.492;2023-02-04T07:31:05;100234.35;;;-4.63;100.00
23341;BME280;12239;53.404;23.492;2023-02-04T07:33:34;100238.70;;;-4.61;100.00
23341;BME280;12239;53.404;23.492;2023-02-04T07:36:04;100241.48;;;-4.59;100.00
23341;BME280;12239;53.404;23.492;2023-02-04T07:38:33;100246.69;;;-4.59;100.00
23341;BME280;12239;53.404;23.492;2023-02-04T07:41:02;100248.16;;;-4.58;100.00
23341;BME280;12239;53.404;23.492;2023-02-04T07:43:32;100253.36;;;-4.58;100.00
23341;BME280;12239;53.404;23.492;2023-02-04T07:46:21;100261.02;;;-4.56;100.00
23341;BME280;12239;53.404;23.492;2023-02-04T07:48:51;100260.89;;;-4.53;100.00
23341;BME280;12239;53.404;23.492;2023-02-04T07:51:20;100269.71;;;-4.48;100.00
23341;BME280;12239;53.404;23.492;2023-02-04T07:53:49;100275.36;;;-4.43;100.00
23341;BME280;12239;53.404;23.492;2023-02-04T07:56:21;100278.10;;;-4.40;100.00
23341;BME280;12239;53.404;23.492;2023-02-04T07:58:50;100280.73;;;-4.35;100.00
23341;BME280;12239;53.404;23.492;2023-02-04T08:01:20;100290.17;;;-4.32;100.00
23341;BME280;12239;53.404;23.492;2023-02-04T08:04:10;100287.60;;;-4.29;100.00
23341;BME280;12239;53.404;23.492;2023-02-04T08:06:39;100292.67;;;-4.26;100.00
23341;BME280;12239;53.404;23.492;2023-02-04T08:09:11;100294.18;;;-4.21;100.00
23341;BME280;12239;53.404;23.492;2023-02-04T08:12:01;100298.75;;;-4.21;100.00
23341;BME280;12239;53.404;23.492;2023-02-04T08:14:30;100301.54;;;-4.21;100.00
23341;BME280;12239;53.404;23.492;2023-02-04T08:17:00;100309.69;;;-4.20;100.00
23341;BME280;12239;53.404;23.492;2023-02-04T08:19:29;100314.10;;;-4.17;100.00
23341;BME280;12239;53.404;23.492;2023-02-04T08:21:59;100312.86;;;-4.14;100.00
23341;BME280;12239;53.404;23.492;2023-02-04T08:24:28;100312.15;;;-4.10;100.00
23341;BME280;12239;53.404;23.492;2023-02-04T08:26:57;100315.81;;;-4.07;100.00
23341;BME280;12239;53.404;23.492;2023-02-04T08:29:47;100321.73;;;-4.02;100.00
23341;BME280;12239;53.404;23.492;2023-02-04T08:32:17;100323.89;;;-4.03;100.00
23341;BME280;12239;53.404;23.492;2023-02-04T08:34:49;100327.98;;;-4.05;100.00
23341;BME280;12239;53.404;23.492;2023-02-04T08:37:18;100331.23;;;-4.04;100.00
23341;BME280;12239;53.404;23.492;2023-02-04T08:39:50;100334.46;;;-4.00;100.00
23341;BME280;12239;53.404;23.492;2023-02-04T08:42:20;100340.17;;;-3.95;100.00
23341;BME280;12239;53.404;23.492;2023-02-04T08:44:52;100340.55;;;-3.90;100.00
23341;BME280;12239;53.404;23.492;2023-02-04T08:47:21;100341.99;;;-3.86;100.00
23341;BME280;12239;53.404;23.492;2023-02-04T08:49:51;100342.70;;;-3.80;100.00
23341;BME280;12239;53.404;23.492;2023-02-04T08:52:20;100348.65;;;-3.73;100.00
23341;BME280;12239;53.404;23.492;2023-02-04T08:54:50;100356.52;;;-3.70;100.00
23341;BME280;12239;53.404;23.492;2023-02-04T08:57:19;100358.38;;;-3.68;100.00
23341;BME280;12239;53.404;23.492;2023-02-04T08:59:48;100361.33;;;-3.68;100.00
23341;BME280;12239;53.404;23.492;2023-02-04T09:02:18;100373.92;;;-3.63;100.00
23341;BME280;12239;53.404;23.492;2023-02-04T09:04:47;100369.26;;;-3.61;100.00
23341;BME280;12239;53.404;23.492;2023-02-04T09:07:16;100371.10;;;-3.57;100.00
23341;BME280;12239;53.404;23.492;2023-02-04T09:10:06;100374.75;;;-3.52;100.00
23341;BME280;12239;53.404;23.492;2023-02-04T09:12:36;100381.63;;;-3.45;100.00
23341;BME280;12239;53.404;23.492;2023-02-04T09:15:06;100375.92;;;-3.42;100.00
23341;BME280;12239;53.404;23.492;2023-02-04T09:17:39;100378.98;;;-3.41;100.00
23341;BME280;12239;53.404;23.492;2023-02-04T09:20:11;100383.91;;;-3.45;100.00
23341;BME280;12239;53.404;23.492;2023-02-04T09:22:40;100384.40;;;-3.46;100.00
23341;BME280;12239;53.404;23.492;2023-02-04T09:25:10;100389.17;;;-3.46;100.00
23341;BME280;12239;53.404;23.492;2023-02-04T09:27:42;100386.23;;;-3.45;100.00
23341;BME280;12239;53.404;23.492;2023-02-04T09:30:14;100382.88;;;-3.43;100.00
23341;BME280;12239;53.404;23.492;2023-02-04T09:32:43;100385.86;;;-3.43;100.00
23341;BME280;12239;53.404;23.492;2023-02-04T09:35:13;100388.02;;;-3.42;100.00
23341;BME280;12239;53.404;23.492;2023-02-04T09:37:42;100389.95;;;-3.42;100.00
23341;BME280;12239;53.404;23.492;2023-02-04T09:40:15;100394.15;;;-3.44;100.00
23341;BME280;12239;53.404;23.492;2023-02-04T09:43:05;100389.80;;;-3.47;100.00
23341;BME280;12239;53.404;23.492;2023-02-04T09:45:35;100400.00;;;-3.47;100.00
23341;BME280;12239;53.404;23.492;2023-02-04T09:48:25;100400.06;;;-3.47;100.00
23341;BME280;12239;53.404;23.492;2023-02-04T09:51:01;100396.14;;;-3.44;100.00
23341;BME280;12239;53.404;23.492;2023-02-04T09:53:31;100401.04;;;-3.44;100.00
23341;BME280;12239;53.404;23.492;2023-02-04T09:56:00;100399.23;;;-3.45;100.00
23341;BME280;12239;53.404;23.492;2023-02-04T09:58:33;100404.75;;;-3.49;100.00
23341;BME280;12239;53.404;23.492;2023-02-04T10:01:08;100407.89;;;-3.55;100.00
23341;BME280;12239;53.404;23.492;2023-02-04T10:03:40;100410.12;;;-3.56;100.00
23341;BME280;12239;53.404;23.492;2023-02-04T10:06:14;100415.27;;;-3.58;100.00
23341;BME280;12239;53.404;23.492;2023-02-04T10:08:43;100409.86;;;-3.57;100.00
23341;BME280;12239;53.404;23.492;2023-02-04T10:11:13;100411.08;;;-3.55;100.00
23341;BME280;12239;53.404;23.492;2023-02-04T10:13:44;100419.10;;;-3.50;100.00
23341;BME280;12239;53.404;23.492;2023-02-04T10:16:20;100421.71;;;-3.44;100.00
23341;BME280;12239;53.404;23.492;2023-02-04T10:18:57;100421.09;;;-3.38;100.00
23341;BME280;12239;53.404;23.492;2023-02-04T10:21:27;100419.06;;;-3.33;100.00
23341;BME280;12239;53.404;23.492;2023-02-04T10:23:58;100423.79;;;-3.30;100.00
23341;BME280;12239;53.404;23.492;2023-02-04T10:26:29;100425.27;;;-3.35;100.00
23341;BME280;12239;53.404;23.492;2023-02-04T10:29:00;100432.23;;;-3.42;100.00
23341;BME280;12239;53.404;23.492;2023-02-04T10:31:36;100436.74;;;-3.45;100.00
23341;BME280;12239;53.404;23.492;2023-02-04T10:34:06;100437.16;;;-3.47;100.00
23341;BME280;12239;53.404;23.492;2023-02-04T10:36:37;100446.00;;;-3.51;100.00
23341;BME280;12239;53.404;23.492;2023-02-04T10:39:09;100440.08;;;-3.51;100.00
23341;BME280;12239;53.404;23.492;2023-02-04T10:41:42;100445.83;;;-3.51;100.00
23341;BME280;12239;53.404;23.492;2023-02-04T10:44:14;100450.81;;;-3.51;100.00
23341;BME280;12239;53.404;23.492;2023-02-04T10:46:44;100454.19;;;-3.52;100.00
23341;BME280;12239;53.404;23.492;2023-02-04T10:49:18;100455.30;;;-3.51;100.00
23341;BME280;12239;53.404;23.492;2023-02-04T10:51:48;100461.84;;;-3.50;100.00
23341;BME280;12239;53.404;23.492;2023-02-04T10:54:19;100467.24;;;-3.51;100.00
23341;BME280;12239;53.404;23.492;2023-02-04T10:57:06;100468.27;;;-3.52;100.00
23341;BME280;12239;53.404;23.492;2023-02-04T10:59:36;100472.48;;;-3.53;100.00
23341;BME280;12239;53.404;23.492;2023-02-04T11:02:15;100469.64;;;-3.51;100.00
23341;BME280;12239;53.404;23.492;2023-02-04T11:05:02;100473.26;;;-3.50;100.00
23341;BME280;12239;53.404;23.492;2023-02-04T11:07:31;100475.97;;;-3.54;100.00
23341;BME280;12239;53.404;23.492;2023-02-04T11:10:01;100474.89;;;-3.55;100.00
23341;BME280;12239;53.404;23.492;2023-02-04T11:12:38;100475.61;;;-3.58;100.00
23341;BME280;12239;53.404;23.492;2023-02-04T11:17:58;100480.30;;;-3.63;100.00
23341;BME280;12239;53.404;23.492;2023-02-04T11:20:31;100486.23;;;-3.64;100.00
23341;BME280;12239;53.404;23.492;2023-02-04T11:23:13;100494.71;;;-3.66;100.00
23341;BME280;12239;53.404;23.492;2023-02-04T11:25:43;100494.27;;;-3.68;100.00
23341;BME280;12239;53.404;23.492;2023-02-04T11:28:21;100497.45;;;-3.72;100.00
23341;BME280;12239;53.404;23.492;2023-02-04T11:30:58;100501.36;;;-3.74;100.00
23341;BME280;12239;53.404;23.492;2023-02-04T11:33:37;100508.48;;;-3.70;100.00
23341;BME280;12239;53.404;23.492;2023-02-04T11:36:08;100507.88;;;-3.68;100.00
23341;BME280;12239;53.404;23.492;2023-02-04T11:38:44;100507.73;;;-3.63;100.00
23341;BME280;12239;53.404;23.492;2023-02-04T11:41:34;100507.99;;;-3.61;100.00
23341;BME280;12239;53.404;23.492;2023-02-04T11:44:04;100514.83;;;-3.58;100.00
23341;BME280;12239;53.404;23.492;2023-02-04T11:46:33;100514.11;;;-3.54;100.00
23341;BME280;12239;53.404;23.492;2023-02-04T11:49:13;100515.18;;;-3.56;100.00
23341;BME280;12239;53.404;23.492;2023-02-04T11:51:44;100524.38;;;-3.62;100.00
23341;BME280;12239;53.404;23.492;2023-02-04T11:54:14;100533.27;;;-3.69;100.00
23341;BME280;12239;53.404;23.492;2023-02-04T11:56:46;100545.52;;;-3.80;100.00
23341;BME280;12239;53.404;23.492;2023-02-04T11:59:16;100539.13;;;-4.02;100.00
23341;BME280;12239;53.404;23.492;2023-02-04T12:01:48;100543.86;;;-4.17;100.00
23341;BME280;12239;53.404;23.492;2023-02-04T12:04:22;100542.65;;;-4.21;100.00
23341;BME280;12239;53.404;23.492;2023-02-04T12:06:58;100539.81;;;-4.21;100.00
23341;BME280;12239;53.404;23.492;2023-02-04T12:09:31;100543.70;;;-4.20;100.00
23341;BME280;12239;53.404;23.492;2023-02-04T12:12:01;100546.80;;;-4.19;100.00
23341;BME280;12239;53.404;23.492;2023-02-04T12:14:31;100547.09;;;-4.19;100.00
23341;BME280;12239;53.404;23.492;2023-02-04T12:17:14;100545.36;;;-4.22;100.00
23341;BME280;12239;53.404;23.492;2023-02-04T12:19:43;100539.61;;;-4.24;100.00
23341;BME280;12239;53.404;23.492;2023-02-04T12:22:12;100544.77;;;-4.26;100.00
23341;BME280;12239;53.404;23.492;2023-02-04T12:24:42;100539.71;;;-4.25;100.00
23341;BME280;12239;53.404;23.492;2023-02-04T12:27:11;100544.44;;;-4.20;100.00
23341;BME280;12239;53.404;23.492;2023-02-04T12:29:41;100538.66;;;-4.14;100.00
23341;BME280;12239;53.404;23.492;2023-02-04T12:32:10;100543.04;;;-4.04;100.00
23341;BME280;12239;53.404;23.492;2023-02-04T12:34:39;100546.23;;;-3.96;100.00
23341;BME280;12239;53.404;23.492;2023-02-04T12:37:08;100549.60;;;-3.90;100.00
23341;BME280;12239;53.404;23.492;2023-02-04T12:39:38;100554.27;;;-3.83;100.00
23341;BME280;12239;53.404;23.492;2023-02-04T12:42:07;100547.77;;;-3.80;100.00
23341;BME280;12239;53.404;23.492;2023-02-04T12:44:36;100549.84;;;-3.80;100.00
23341;BME280;12239;53.404;23.492;2023-02-04T12:47:06;100552.80;;;-3.75;100.00
23341;BME280;12239;53.404;23.492;2023-02-04T12:49:35;100558.16;;;-3.72;100.00
23341;BME280;12239;53.404;23.492;2023-02-04T12:52:07;100557.61;;;-3.69;100.00
23341;BME280;12239;53.404;23.492;2023-02-04T12:54:36;100557.57;;;-3.65;100.00